14/2 a 24/2: Calor en gran parte del país (sobre todo N patagónico y región central); final con tormentas severas

Avatar de Usuario
Ernest
Mensajes: 11838
Registrado: Vie Jul 17, 2009 10:54 pm
Ubicación: Balvanera, CABA

14/2 a 24/2: Calor en gran parte del país (sobre todo N patagónico y región central); final con tormentas severas

Mensaje por Ernest » Jue Feb 14, 2019 3:53 pm

Abrimos nuevo thread, ya en Patagonia están registrándose altas temperaturas de la mano de altas presiones en niveles medios y altos.
También se recupera rápidamente Cuyo luego de las relativamente bajas temperaturas de ayer.

Localidades del AMBA entre las más frescas debido a la nubosidad remanente, aunque en Aeroparque hace ya un rato que brilla el sol.

1 CIPOLLETTI RIO NEGRO 35.0 ºC - 20 %
2 SAN JUAN SAN JUAN 33.4 ºC - 14 %
3 COMODORO RIVADAVIA CHUBUT 33.3 ºC - 22 %
4 PUERTO MADRYN CHUBUT 33.3 ºC - 23 %
5 NEUQUEN NEUQUEN 33.2 ºC - 16 %
6 SAN MARTIN (MZA) MENDOZA 33.1 ºC - 20 %
7 VIEDMA RIO NEGRO 32.8 ºC - 25 %
8 CHILECITO LA RIOJA 32.3 ºC - 31 %
9 RIO COLORADO RIO NEGRO 32.2 ºC 33.8 ºC 46 %
10 LA RIOJA LA RIOJA 32.2 ºC - 39 %

91 RIO GALLEGOS SANTA CRUZ 21.2 ºC - 28 %
92 LA QUIACA OBS. JUJUY 21.2 ºC - 31 %
93 CAMPO DE MAYO BUENOS AIRES 21.1 ºC - 75 %
94 DOLORES BUENOS AIRES 21.0 ºC - 70 %
95 EZEIZA BUENOS AIRES 20.9 ºC - 61 %
96 EL CALAFATE SANTA CRUZ 20.6 ºC - 36 %
97 MORON BUENOS AIRES 20.4 ºC - 70 %
98 LA PLATA BUENOS AIRES 20.2 ºC - 61 %
99 RIO GRANDE B.A. TIERRA DEL FUEGO 15.4 ºC - 44 %
100 USHUAIA TIERRA DEL FUEGO 8.5 ºC 4.2 ºC 89 %
Última edición por Ernest el Sab Feb 23, 2019 12:30 pm, editado 4 veces en total.
Did you want to talk about the weather, or were you just making chitchat?

Twitter: @ErnestoMeteo

Avatar de Usuario
Ezequiel95
Mensajes: 9049
Registrado: Jue Dic 10, 2015 12:33 pm
Ubicación: Merlo, Buenos Aires
Contactar:

Re: 14/2 a 21/2: Período de altas temperaturas en gran parte del país (sobre todo N patagónico y región central)

Mensaje por Ezequiel95 » Jue Feb 14, 2019 4:27 pm

Por acá quiere abrir. Pero le cuesta todavía

Avatar de Usuario
Wyoming
Mensajes: 1131
Registrado: Jue Jun 22, 2017 12:15 pm
Ubicación: Fiske Menuco

Re: 14/2 a 21/2: Período de altas temperaturas en gran parte del país (sobre todo N patagónico y región central)

Mensaje por Wyoming » Jue Feb 14, 2019 6:03 pm

36,7°C por acá.
Ni una gota de viento.
Previously known as MarianoStorm.
Pasillo de los Tornados - Pasado y presente.

Avatar de Usuario
Ale de Castelar
Mensajes: 27780
Registrado: Sab Mar 03, 2012 12:25 pm
Ubicación: Caballito

Re: 14/2 a 21/2: Período de altas temperaturas en gran parte del país (sobre todo N patagónico y región central)

Mensaje por Ale de Castelar » Jue Feb 14, 2019 6:53 pm

Es tremendo lo que se vive en Rio Grande en los dias hiper ventosos como hoy por la laguna seca que tienen cerca.
Marcelo que esta semana estuvo por ahi nos contaba


Avatar de Usuario
Diecha
Mensajes: 13878
Registrado: Jue Ago 25, 2011 9:31 pm
Ubicación: Lomas de Zamora

Re: 14/2 a 21/2: Período de altas temperaturas en gran parte del país (sobre todo N patagónico y región central)

Mensaje por Diecha » Jue Feb 14, 2019 6:58 pm

Imagen
Spoiler
Mostrar
Imagen
Imagen
Imagen
Imagen
Imagen
Imagen
Imagen
Imagen

Avatar de Usuario
Ernest
Mensajes: 11838
Registrado: Vie Jul 17, 2009 10:54 pm
Ubicación: Balvanera, CABA

Re: 14/2 a 21/2: Período de altas temperaturas en gran parte del país (sobre todo N patagónico y región central)

Mensaje por Ernest » Jue Feb 14, 2019 7:11 pm

Ale de Castelar escribió:Es tremendo lo que se vive en Rio Grande en los dias hiper ventosos como hoy por la laguna seca que tienen cerca.
Marcelo que esta semana estuvo por ahi nos contaba
Tremendo. ¿Está habitualmente seca o es porque estuvo inusualmente seco por esos lares? (lo segundo me llamó la atención viendo climats)
Did you want to talk about the weather, or were you just making chitchat?

Twitter: @ErnestoMeteo

Avatar de Usuario
Diecha
Mensajes: 13878
Registrado: Jue Ago 25, 2011 9:31 pm
Ubicación: Lomas de Zamora

Re: 14/2 a 21/2: Período de altas temperaturas en gran parte del país (sobre todo N patagónico y región central)

Mensaje por Diecha » Jue Feb 14, 2019 7:17 pm

Río Gallegos:
Imagen
Imagen
www.twitter.com/munoznotired/status/1096132702003171330

- Río Gallegos 15 hs: SAWG 141800Z 27037G50KT 9999 FEW030 21/02 Q0997 (ráfaga de 93 Km/h)
- Río Gallegos 16 hs: SAWG 141900Z 27038G50KT 9999 FEW030 21/01 Q0997 (ráfaga de 93 Km/h)
- Río Gallegos 17 hs: SAWG 142000Z 25037G51KT 9999 FEW030 SCT200 20/03 Q0998 (ráfaga de 94 Km/h)
- Río Gallegos 18 hs: SAWG 142100Z 23037G52KT 9999 FEW030 19/02 Q1000 (ráfaga de 96 Km/h)
- Río Gallegos 19 hs: SAWG 142200Z 25036G48KT 9999 FEW030 18/01 Q1001 (ráfaga de 89 Km/h)

- Río Grande 16 hs: SAWE 141900Z 27040G55KT 0050 BLDU BKN016 16/02 Q0993 (ráfaga de 102 Km/h)
- Río Grande 17 hs: SAWE 142000Z 27040G52KT 0050 BLDU SCT016 15/03 Q0994 (ráfaga de 96 Km/h)
- Río Grande 18 hs: SAWE 142100Z 25036G50KT 0100 BLDU SCT016 15/04 Q0994 (ráfaga de 93 Km/h)
- Río Grande 19 hs: SAWE 142200Z 25034G47KT 0500 BLDU FEW016 14/03 Q0995 (ráfaga de 87 Km/h)

- Ushuaia 15:30 hs: SAWH 141830Z 23032G54KT 5000 +RA FEW025 BKN035 08/07 Q0989 (ráfaga de 100 Km/h)
- Ushuaia 16 hs: SAWH 141900Z 23024G54KT 9999 -RA FEW025 SCT035 08/06 Q0990 (ráfaga de 100 Km/h)

Avatar de Usuario
Ezequiel95
Mensajes: 9049
Registrado: Jue Dic 10, 2015 12:33 pm
Ubicación: Merlo, Buenos Aires
Contactar:

Re: 14/2 a 21/2: Período de altas temperaturas en gran parte del país (sobre todo N patagónico y región central)

Mensaje por Ezequiel95 » Jue Feb 14, 2019 7:41 pm

:shock:
Por acá ya se despejó completamente.

Avatar de Usuario
Marcelo
Mensajes: 5923
Registrado: Jue Jul 30, 2009 3:42 pm
Ubicación: Villa Crespo, Ciudad de Buenos Aires

Re: 14/2 a 21/2: Período de altas temperaturas en gran parte del país (sobre todo N patagónico y región central)

Mensaje por Marcelo » Jue Feb 14, 2019 7:50 pm

La EMA de San Sebastián, en el norte fueguino, registró un máximo de 110 km/h. Tengo miedo de perderla a esa EMA

Sobre la laguna seca, es bastante chica y por Google maps se ve bien. Básicamente afecta a una zona restringida a su ancho en dirección hacia donde sopla el viento. De un lado se ve normal... hacés unos metros y ya no se ve nada. Según me dijeron, esto pasa en verano nada más, cuando se le evapora el agua.

Enviado desde mi SM-G570M mediante Tapatalk
La posta para lo que sucede en Buenos Aires la tiene la estación de AEROPARQUE.

Mis threads de Climatología:
Mapas Climáticos de Argentina
Temperaturas Extremas de Argentina
Nevadas en Sitios Inusuales

Avatar de Usuario
Ezequiel15
Mensajes: 12193
Registrado: Lun Ene 23, 2012 4:18 pm
Ubicación: I Casanova
Contactar:

Re: 14/2 a 21/2: Período de altas temperaturas en gran parte del país (sobre todo N patagónico y región central)

Mensaje por Ezequiel15 » Jue Feb 14, 2019 8:22 pm

Ale de Castelar escribió:Es tremendo lo que se vive en Rio Grande en los dias hiper ventosos como hoy por la laguna seca que tienen cerca.
Marcelo que esta semana estuvo por ahi nos contaba
Spoiler
Mostrar

Imagen

Responder